Time;durP1;ratioP1;P1;durP2;ratioP2;P2;SDS_P1;SDS_P2;PMS_P1;PMS_P2;Temp;Humidity;BMP_temperature;BMP_pressure;BME280_temperature;BME280_humidity;BME280_pressure;Samples;Min_cycle;Max_cycle;Signal;HPM_P1;HPM_P2
2022/07/11 00:01:31;;;;;;;2.63;1.80;;;;;;;;;;5026317;28;20618;-65
2022/07/11 00:04:05;;;;;;;2.23;1.77;;;;;;;;;;5013547;28;20384;-65
2022/07/11 00:06:37;;;;;;;3.30;2.10;;;;;;;;;;5026162;28;20278;-65
2022/07/11 00:09:07;;;;;;;2.57;1.70;;;;;;;;;;5015624;28;20526;-65
2022/07/11 00:11:36;;;;;;;2.63;1.70;;;;;;;;;;5021542;28;20214;-66
2022/07/11 00:14:09;;;;;;;4.50;2.07;;;;;;;;;;5001680;28;20255;-66
2022/07/11 00:16:38;;;;;;;3.67;1.97;;;;;;;;;;4993734;28;20222;-66
2022/07/11 00:19:09;;;;;;;2.50;1.70;;;;;;;;;;5029934;28;20218;-66
2022/07/11 00:21:39;;;;;;;2.50;1.83;;;;;;;;;;5022357;28;20195;-66
2022/07/11 00:24:10;;;;;;;2.90;1.90;;;;;;;;;;5037701;28;20257;-66
2022/07/11 00:26:44;;;;;;;2.53;1.90;;;;;;;;;;5011044;28;20222;-66
2022/07/11 00:29:24;;;;;;;3.10;1.80;;;;;;;;;;5033035;28;20209;-66
2022/07/11 00:32:00;;;;;;;2.30;1.70;;;;;;;;;;5044799;28;20646;-66
2022/07/11 00:34:32;;;;;;;2.10;1.70;;;;;;;;;;5038357;28;20239;-65
2022/07/11 00:37:00;;;;;;;3.17;1.80;;;;;;;;;;5027408;28;20851;-65
2022/07/11 00:39:33;;;;;;;2.43;1.70;;;;;;;;;;5031900;28;20187;-65
2022/07/11 00:42:21;;;;;;;2.73;2.00;;;;;;;;;;5028482;28;20203;-65
2022/07/11 00:44:53;;;;;;;2.40;1.87;;;;;;;;;;5039431;28;20246;-66
2022/07/11 00:47:23;;;;;;;2.23;1.80;;;;;;;;;;5027713;28;20538;-65
2022/07/11 00:49:53;;;;;;;1.93;1.67;;;;;;;;;;5033967;28;20293;-65
2022/07/11 00:52:25;;;;;;;2.60;1.80;;;;;;;;;;5000344;28;20234;-65
2022/07/11 00:54:54;;;;;;;2.30;1.77;;;;;;;;;;5015645;28;20226;-65
2022/07/11 00:57:27;;;;;;;3.23;1.80;;;;;;;;;;5028075;28;20202;-65
2022/07/11 01:00:00;;;;;;;4.07;1.90;;;;;;;;;;5042104;28;20608;-65
2022/07/11 01:02:28;;;;;;;3.27;1.77;;;;;;;;;;5034160;28;20202;-65
2022/07/11 01:04:58;;;;;;;3.17;2.13;;;;;;;;;;5040743;28;20194;-65
2022/07/11 01:07:31;;;;;;;3.00;1.93;;;;;;;;;;5031265;28;20261;-65
2022/07/11 01:10:05;;;;;;;3.33;1.73;;;;;;;;;;5012648;28;20209;-66
2022/07/11 01:12:35;;;;;;;3.37;2.10;;;;;;;;;;5028235;28;20241;-65
2022/07/11 01:15:07;;;;;;;2.17;1.83;;;;;;;;;;5036822;28;20527;-65
2022/07/11 01:17:39;;;;;;;3.80;2.20;;;;;;;;;;5014460;28;20620;-65
2022/07/11 01:20:09;;;;;;;2.73;1.70;;;;;;;;;;5021439;28;20202;-65
2022/07/11 01:22:49;;;;;;;2.47;2.03;;;;;;;;;;5042126;28;20194;-64
2022/07/11 01:25:32;;;;;;;7.93;2.13;;;;;;;;;;5014058;28;20195;-65
2022/07/11 01:28:04;;;;;;;2.17;1.90;;;;;;;;;;5019195;28;20676;-65
2022/07/11 01:30:33;;;;;;;2.97;1.97;;;;;;;;;;5040696;28;20668;-65
2022/07/11 01:33:03;;;;;;;3.77;1.80;;;;;;;;;;5035056;28;20209;-65
2022/07/11 01:35:32;;;;;;;3.73;1.97;;;;;;;;;;5017156;28;20230;-65
2022/07/11 01:38:03;;;;;;;3.20;2.00;;;;;;;;;;5044837;28;20203;-65
2022/07/11 01:40:35;;;;;;;3.43;1.87;;;;;;;;;;5043803;28;20195;-65
2022/07/11 01:43:02;;;;;;;2.50;2.00;;;;;;;;;;5043503;28;20187;-65
2022/07/11 01:45:36;;;;;;;2.83;2.00;;;;;;;;;;5031863;28;20292;-65
2022/07/11 01:48:07;;;;;;;2.73;1.80;;;;;;;;;;5025141;28;20213;-65
2022/07/11 01:50:38;;;;;;;2.87;1.73;;;;;;;;;;5041562;28;20223;-65
2022/07/11 01:53:08;;;;;;;2.83;1.97;;;;;;;;;;5042748;28;20209;-65
2022/07/11 01:55:41;;;;;;;3.57;1.90;;;;;;;;;;5028309;28;20210;-65
2022/07/11 01:58:34;;;;;;;3.80;2.27;;;;;;;;;;5029582;28;20206;-65
2022/07/11 02:01:06;;;;;;;4.37;1.77;;;;;;;;;;5041597;28;20199;-65
2022/07/11 02:03:37;;;;;;;4.33;1.87;;;;;;;;;;5044629;28;20220;-65
2022/07/11 02:06:06;;;;;;;2.77;1.93;;;;;;;;;;5046943;28;20202;-65
2022/07/11 02:08:41;;;;;;;3.20;1.83;;;;;;;;;;5047664;28;20195;-64
2022/07/11 02:11:10;;;;;;;3.17;1.90;;;;;;;;;;5044793;28;20238;-65
2022/07/11 02:13:41;;;;;;;5.37;1.90;;;;;;;;;;5047425;28;20209;-65
2022/07/11 02:16:10;;;;;;;2.97;2.10;;;;;;;;;;5022079;28;20296;-65
2022/07/11 02:18:38;;;;;;;3.07;2.10;;;;;;;;;;5049102;28;20187;-65
2022/07/11 02:21:09;;;;;;;2.47;1.93;;;;;;;;;;5038534;28;20198;-65
2022/07/11 02:23:43;;;;;;;4.00;2.10;;;;;;;;;;5024788;28;20635;-65
2022/07/11 02:26:15;;;;;;;2.43;1.93;;;;;;;;;;5038800;28;20205;-65
2022/07/11 02:28:48;;;;;;;4.43;2.30;;;;;;;;;;5032540;28;20199;-65
2022/07/11 02:31:38;;;;;;;3.20;2.30;;;;;;;;;;5036169;28;20222;-65
2022/07/11 02:34:09;;;;;;;5.13;2.30;;;;;;;;;;5037944;28;20211;-65
2022/07/11 02:36:42;;;;;;;2.93;1.90;;;;;;;;;;5012364;28;20223;-65
2022/07/11 02:39:11;;;;;;;4.07;2.10;;;;;;;;;;5034554;28;20650;-65
2022/07/11 02:41:43;;;;;;;3.10;2.00;;;;;;;;;;5036532;28;20210;-65
2022/07/11 02:44:14;;;;;;;2.53;1.90;;;;;;;;;;5024441;28;20260;-65
2022/07/11 02:46:43;;;;;;;1.80;1.57;;;;;;;;;;5032258;28;20682;-65
2022/07/11 02:49:14;;;;;;;3.20;2.30;;;;;;;;;;5028949;28;20218;-65
2022/07/11 02:51:44;;;;;;;2.80;2.00;;;;;;;;;;5033938;28;20207;-66
2022/07/11 02:54:14;;;;;;;2.73;2.17;;;;;;;;;;5036623;28;20222;-65
2022/07/11 02:56:45;;;;;;;2.87;1.60;;;;;;;;;;5038641;28;20759;-65
2022/07/11 02:59:14;;;;;;;2.57;1.93;;;;;;;;;;5032096;28;20213;-65
2022/07/11 03:01:45;;;;;;;4.37;1.93;;;;;;;;;;5037708;28;20658;-64
2022/07/11 03:04:18;;;;;;;4.57;2.47;;;;;;;;;;5013196;28;20573;-65
2022/07/11 03:06:50;;;;;;;2.77;1.70;;;;;;;;;;5042833;28;20190;-65
2022/07/11 03:09:23;;;;;;;3.37;1.90;;;;;;;;;;5022622;28;20191;-65
2022/07/11 03:11:54;;;;;;;3.07;2.00;;;;;;;;;;5016488;28;20218;-65
2022/07/11 03:14:25;;;;;;;3.33;2.30;;;;;;;;;;5028898;28;20319;-65
2022/07/11 03:16:56;;;;;;;3.07;1.90;;;;;;;;;;5032059;28;20651;-65
2022/07/11 03:19:28;;;;;;;2.57;1.70;;;;;;;;;;5009729;28;20192;-65
2022/07/11 03:21:59;;;;;;;1.80;1.63;;;;;;;;;;5030779;28;20705;-65
2022/07/11 03:24:29;;;;;;;2.57;1.87;;;;;;;;;;5047284;28;20191;-65
2022/07/11 03:27:01;;;;;;;2.87;1.70;;;;;;;;;;5039450;28;20198;-65
2022/07/11 03:29:36;;;;;;;2.97;1.70;;;;;;;;;;5040654;28;20241;-65
2022/07/11 03:32:08;;;;;;;2.93;1.80;;;;;;;;;;5028043;28;20223;-65
2022/07/11 03:35:40;;;;;;;4.97;1.43;;;;;;;;;;5029371;28;20679;-65
2022/07/11 03:37:33;;;;;;;2.77;1.67;;;;;;;;;;5036296;28;20202;-65
2022/07/11 03:40:02;;;;;;;3.00;1.90;;;;;;;;;;5024952;28;20191;-65
2022/07/11 03:42:32;;;;;;;2.87;1.70;;;;;;;;;;5038091;28;20214;-65
2022/07/11 03:45:02;;;;;;;3.13;1.80;;;;;;;;;;5039738;28;20258;-65
2022/07/11 03:47:32;;;;;;;5.60;2.00;;;;;;;;;;5039648;28;20294;-65
2022/07/11 03:50:03;;;;;;;3.33;1.90;;;;;;;;;;5034277;28;20273;-65
2022/07/11 03:52:33;;;;;;;4.27;1.90;;;;;;;;;;5039223;28;20225;-65
2022/07/11 03:55:04;;;;;;;7.77;1.83;;;;;;;;;;5028504;28;20722;-65
2022/07/11 03:57:34;;;;;;;5.40;1.90;;;;;;;;;;5033444;28;20190;-65
2022/07/11 04:00:07;;;;;;;5.57;1.80;;;;;;;;;;5005946;28;20196;-65
2022/07/11 04:02:37;;;;;;;6.00;2.07;;;;;;;;;;5026743;28;20680;-65
2022/07/11 04:05:10;;;;;;;6.33;1.70;;;;;;;;;;5028757;28;20202;-65
2022/07/11 04:07:45;;;;;;;4.53;1.87;;;;;;;;;;5034554;28;20265;-64
2022/07/11 04:10:21;;;;;;;8.30;2.10;;;;;;;;;;5018912;28;20214;-65
2022/07/11 04:12:53;;;;;;;5.93;1.73;;;;;;;;;;5032475;28;20211;-65
2022/07/11 04:15:20;;;;;;;3.40;1.77;;;;;;;;;;5012633;28;20211;-65
2022/07/11 04:17:55;;;;;;;5.33;2.23;;;;;;;;;;5033242;28;20211;-65
2022/07/11 04:20:28;;;;;;;6.73;1.80;;;;;;;;;;5032219;28;20214;-65
2022/07/11 04:22:57;;;;;;;2.10;1.60;;;;;;;;;;5029917;28;20221;-65
2022/07/11 04:25:27;;;;;;;4.00;1.60;;;;;;;;;;5037434;28;20628;-65
2022/07/11 04:27:59;;;;;;;2.80;1.40;;;;;;;;;;5038164;28;20712;-64
2022/07/11 04:30:30;;;;;;;4.20;1.70;;;;;;;;;;5029820;28;20221;-63
2022/07/11 04:33:01;;;;;;;3.87;1.60;;;;;;;;;;5032483;28;20194;-63
2022/07/11 04:35:39;;;;;;;2.33;1.80;;;;;;;;;;5024140;28;20257;-64
2022/07/11 04:38:13;;;;;;;3.90;1.50;;;;;;;;;;5027484;28;20540;-64
2022/07/11 04:40:45;;;;;;;2.03;1.10;;;;;;;;;;5027378;28;20701;-63
2022/07/11 04:43:15;;;;;;;3.03;1.30;;;;;;;;;;5042049;28;20186;-63
2022/07/11 04:45:50;;;;;;;2.90;1.50;;;;;;;;;;5014253;28;20230;-65
2022/07/11 04:48:29;;;;;;;2.37;1.50;;;;;;;;;;5024489;28;20228;-65
2022/07/11 04:51:00;;;;;;;2.47;1.63;;;;;;;;;;5046589;28;20205;-65
2022/07/11 04:53:31;;;;;;;5.50;1.20;;;;;;;;;;5021301;28;20226;-65
2022/07/11 04:56:06;;;;;;;4.90;1.57;;;;;;;;;;5018021;28;20217;-62
2022/07/11 04:58:38;;;;;;;1.57;1.37;;;;;;;;;;5028246;28;20269;-63
2022/07/11 05:01:07;;;;;;;1.47;1.13;;;;;;;;;;5034316;28;20217;-63
2022/07/11 05:03:38;;;;;;;2.30;1.50;;;;;;;;;;5022007;28;20206;-63
2022/07/11 05:06:11;;;;;;;1.63;1.30;;;;;;;;;;5036117;28;20211;-63
2022/07/11 05:08:42;;;;;;;2.07;1.47;;;;;;;;;;5036879;28;20190;-63
2022/07/11 05:11:10;;;;;;;2.80;1.20;;;;;;;;;;5032551;28;20215;-64
2022/07/11 05:13:40;;;;;;;1.90;1.20;;;;;;;;;;5021142;28;20206;-65
2022/07/11 05:16:13;;;;;;;1.50;1.40;;;;;;;;;;5025344;28;20667;-65
2022/07/11 05:18:45;;;;;;;2.37;1.13;;;;;;;;;;5024907;28;20206;-64
2022/07/11 05:21:21;;;;;;;4.50;1.20;;;;;;;;;;5027533;28;20260;-66
2022/07/11 05:23:54;;;;;;;2.33;1.40;;;;;;;;;;5026179;28;20274;-64
2022/07/11 05:26:27;;;;;;;3.63;1.37;;;;;;;;;;5034049;28;20210;-63
2022/07/11 05:28:57;;;;;;;2.97;1.73;;;;;;;;;;5032704;28;20206;-63
2022/07/11 05:31:27;;;;;;;2.33;1.77;;;;;;;;;;5031393;28;20190;-63
2022/07/11 05:34:00;;;;;;;4.20;2.30;;;;;;;;;;5035635;28;20299;-64
2022/07/11 05:36:33;;;;;;;23.60;6.23;;;;;;;;;;5037154;28;20234;-64
2022/07/11 05:39:04;;;;;;;31.80;8.47;;;;;;;;;;5034054;28;20214;-64
2022/07/11 05:41:33;;;;;;;22.17;8.83;;;;;;;;;;5027601;28;20206;-64
2022/07/11 05:44:06;;;;;;;23.00;8.73;;;;;;;;;;5037266;28;20276;-64
2022/07/11 05:46:39;;;;;;;23.17;8.30;;;;;;;;;;5026185;28;20230;-64
2022/07/11 05:49:12;;;;;;;22.57;8.47;;;;;;;;;;5031782;28;20190;-64
2022/07/11 05:51:44;;;;;;;17.30;6.87;;;;;;;;;;5019611;28;20198;-64
2022/07/11 05:54:16;;;;;;;16.13;6.47;;;;;;;;;;5037645;28;20206;-64
2022/07/11 05:57:03;;;;;;;16.20;6.53;;;;;;;;;;5030577;28;20297;-64
2022/07/11 05:59:38;;;;;;;11.53;5.53;;;;;;;;;;5006678;28;20203;-64
2022/07/11 06:02:09;;;;;;;11.03;5.33;;;;;;;;;;5013362;28;20623;-63
2022/07/11 06:04:39;;;;;;;12.47;4.43;;;;;;;;;;5019549;28;20262;-65
2022/07/11 06:08:40;;;;;;;13.40;4.23;;;;;;;;;;5004700;28;20628;-63
2022/07/11 06:10:05;;;;;;;10.07;3.80;;;;;;;;;;5027574;28;20243;-63
2022/07/11 06:12:37;;;;;;;7.90;3.63;;;;;;;;;;5029750;28;20202;-65
2022/07/11 06:15:07;;;;;;;10.23;3.70;;;;;;;;;;5025414;28;20207;-63
2022/07/11 06:17:37;;;;;;;6.93;3.10;;;;;;;;;;5027455;28;20311;-63
2022/07/11 06:20:08;;;;;;;11.10;3.17;;;;;;;;;;5017578;28;20202;-63
2022/07/11 06:22:38;;;;;;;6.67;2.60;;;;;;;;;;5031772;28;20683;-65
2022/07/11 06:25:10;;;;;;;5.50;2.40;;;;;;;;;;5029249;28;20207;-64
2022/07/11 06:27:39;;;;;;;6.57;2.43;;;;;;;;;;5028829;28;20282;-68
2022/07/11 06:30:14;;;;;;;32.77;5.40;;;;;;;;;;5031754;28;20666;-64
2022/07/11 06:32:43;;;;;;;25.57;5.83;;;;;;;;;;5029610;28;20199;-64
2022/07/11 06:35:14;;;;;;;18.13;5.17;;;;;;;;;;5028387;28;20211;-63
2022/07/11 06:37:44;;;;;;;13.13;4.17;;;;;;;;;;5027149;28;20757;-63
2022/07/11 06:40:17;;;;;;;16.95;4.38;;;;;;;;;;5010016;28;20416;-65
2022/07/11 06:42:46;;;;;;;15.47;4.17;;;;;;;;;;5034805;28;20199;-70
2022/07/11 06:45:18;;;;;;;15.17;3.57;;;;;;;;;;5018715;28;20309;-70
2022/07/11 06:48:00;;;;;;;13.63;3.63;;;;;;;;;;5027031;28;20309;-68
2022/07/11 06:50:31;;;;;;;13.03;3.03;;;;;;;;;;5046245;28;20541;-68
2022/07/11 06:53:02;;;;;;;9.33;3.00;;;;;;;;;;5031409;28;20195;-68
2022/07/11 06:55:37;;;;;;;6.30;2.57;;;;;;;;;;5032356;28;20293;-69
2022/07/11 06:58:08;;;;;;;5.40;2.30;;;;;;;;;;5002205;28;20741;-67
2022/07/11 07:00:55;;;;;;;8.90;2.23;;;;;;;;;;5004888;28;20559;-70
2022/07/11 07:03:23;;;;;;;5.73;2.10;;;;;;;;;;5027703;28;20195;-68
2022/07/11 07:05:55;;;;;;;6.47;2.30;;;;;;;;;;5029690;28;20261;-67
2022/07/11 07:08:27;;;;;;;6.33;1.90;;;;;;;;;;5010956;28;20211;-66
2022/07/11 07:10:58;;;;;;;4.37;2.20;;;;;;;;;;5027942;28;20274;-69
2022/07/11 07:13:37;;;;;;;3.67;1.70;;;;;;;;;;5022968;28;20636;-68
2022/07/11 07:16:11;;;;;;;3.80;1.80;;;;;;;;;;5039180;28;20306;-65
2022/07/11 07:18:45;;;;;;;3.33;1.43;;;;;;;;;;5017469;28;20210;-64
2022/07/11 07:21:25;;;;;;;5.50;1.40;;;;;;;;;;5019352;28;20207;-68
2022/07/11 07:23:57;;;;;;;3.07;1.47;;;;;;;;;;5003096;28;20854;-68
2022/07/11 07:26:31;;;;;;;2.57;1.57;;;;;;;;;;5030643;28;20201;-64
2022/07/11 07:29:00;;;;;;;2.70;1.57;;;;;;;;;;5027364;28;20190;-64
2022/07/11 07:31:32;;;;;;;10.57;1.73;;;;;;;;;;5033990;28;20190;-67
2022/07/11 07:34:02;;;;;;;4.47;1.60;;;;;;;;;;5018119;28;20552;-62
2022/07/11 07:36:31;;;;;;;7.47;1.53;;;;;;;;;;5004564;28;20708;-62
2022/07/11 07:39:08;;;;;;;5.43;1.80;;;;;;;;;;5038124;28;20195;-62
2022/07/11 07:41:43;;;;;;;5.23;1.50;;;;;;;;;;5007638;28;20190;-62
2022/07/11 07:44:24;;;;;;;2.67;1.23;;;;;;;;;;5028827;28;20227;-63
2022/07/11 07:47:00;;;;;;;3.13;1.10;;;;;;;;;;5027781;28;20213;-65
2022/07/11 07:49:30;;;;;;;3.63;1.20;;;;;;;;;;5024990;28;20609;-65
2022/07/11 07:52:06;;;;;;;2.60;1.60;;;;;;;;;;5028102;28;20774;-65
2022/07/11 07:54:36;;;;;;;3.30;1.60;;;;;;;;;;5029000;28;20628;-65
2022/07/11 07:57:08;;;;;;;2.63;1.20;;;;;;;;;;5013391;28;20222;-65
2022/07/11 07:59:39;;;;;;;2.77;1.27;;;;;;;;;;5034067;28;20213;-65
2022/07/11 08:02:08;;;;;;;3.93;1.00;;;;;;;;;;5031184;28;20202;-62
2022/07/11 08:04:44;;;;;;;1.63;1.23;;;;;;;;;;5020398;28;20208;-62
2022/07/11 08:07:15;;;;;;;4.10;1.20;;;;;;;;;;5014506;28;20203;-65
2022/07/11 08:09:46;;;;;;;1.63;0.90;;;;;;;;;;5031230;28;20199;-65
2022/07/11 08:12:15;;;;;;;1.50;1.00;;;;;;;;;;5036589;28;20207;-65
2022/07/11 08:14:48;;;;;;;2.07;1.20;;;;;;;;;;5033954;28;20834;-66
2022/07/11 08:17:22;;;;;;;1.07;0.90;;;;;;;;;;5005893;28;20211;-66
2022/07/11 08:19:53;;;;;;;1.17;0.90;;;;;;;;;;5035966;28;20621;-66
2022/07/11 08:22:23;;;;;;;2.00;1.07;;;;;;;;;;5018853;28;20515;-66
2022/07/11 08:24:51;;;;;;;3.00;1.10;;;;;;;;;;5026315;28;20266;-66
2022/07/11 08:27:23;;;;;;;1.50;1.00;;;;;;;;;;5034874;28;20225;-63
2022/07/11 08:30:11;;;;;;;1.20;1.00;;;;;;;;;;5036817;28;20224;-65
2022/07/11 08:32:43;;;;;;;0.97;0.87;;;;;;;;;;5039685;28;20210;-65
2022/07/11 08:35:15;;;;;;;2.00;0.93;;;;;;;;;;5027563;28;20240;-66
2022/07/11 08:37:46;;;;;;;1.53;0.97;;;;;;;;;;5026394;28;20227;-66
2022/07/11 08:40:16;;;;;;;1.50;0.90;;;;;;;;;;5036796;28;20199;-63
2022/07/11 08:42:49;;;;;;;0.87;0.80;;;;;;;;;;5030785;28;20201;-62
2022/07/11 08:45:24;;;;;;;0.87;0.80;;;;;;;;;;5038328;28;20230;-62
2022/07/11 08:48:03;;;;;;;1.00;0.90;;;;;;;;;;5013136;28;20210;-61
2022/07/11 08:50:38;;;;;;;0.83;0.83;;;;;;;;;;5038173;28;20197;-64
2022/07/11 08:53:11;;;;;;;1.80;1.00;;;;;;;;;;5041033;28;20194;-65
2022/07/11 08:55:44;;;;;;;2.77;0.90;;;;;;;;;;5016955;28;20640;-65
2022/07/11 08:58:18;;;;;;;1.40;0.90;;;;;;;;;;5011555;28;20215;-65
2022/07/11 09:00:52;;;;;;;1.70;0.90;;;;;;;;;;4998863;28;20291;-63
2022/07/11 09:03:22;;;;;;;1.57;0.77;;;;;;;;;;5025299;28;20199;-62
2022/07/11 09:05:59;;;;;;;0.87;0.70;;;;;;;;;;5036241;28;20186;-62
2022/07/11 09:08:34;;;;;;;1.07;0.80;;;;;;;;;;5001119;28;20543;-62
2022/07/11 09:11:05;;;;;;;1.97;1.00;;;;;;;;;;5032087;28;20289;-62
2022/07/11 09:13:34;;;;;;;1.00;0.90;;;;;;;;;;5024636;28;20667;-62
2022/07/11 09:16:06;;;;;;;1.60;1.10;;;;;;;;;;5033294;28;20203;-65
2022/07/11 09:18:41;;;;;;;0.97;0.80;;;;;;;;;;5031684;28;20265;-65
2022/07/11 09:26:56;;;;;;;1.80;0.90;;;;;;;;;;5000740;28;20297;-65
2022/07/11 09:29:27;;;;;;;1.30;1.20;;;;;;;;;;5028802;28;20634;-65
2022/07/11 09:31:55;;;;;;;1.47;1.00;;;;;;;;;;5034772;28;20663;-61
2022/07/11 09:34:31;;;;;;;1.73;1.00;;;;;;;;;;5031846;28;20197;-63
2022/07/11 09:37:02;;;;;;;3.80;0.93;;;;;;;;;;5042936;28;20234;-66
2022/07/11 09:39:49;;;;;;;1.03;1.00;;;;;;;;;;5032024;28;20222;-66
2022/07/11 09:42:19;;;;;;;2.03;1.30;;;;;;;;;;5042689;28;20662;-66
2022/07/11 09:44:55;;;;;;;1.13;0.90;;;;;;;;;;5038995;28;20231;-65
2022/07/11 09:47:26;;;;;;;0.80;0.80;;;;;;;;;;5025346;28;20187;-66
2022/07/11 09:49:59;;;;;;;2.17;0.73;;;;;;;;;;5012451;28;20226;-67
2022/07/11 09:52:37;;;;;;;1.20;1.07;;;;;;;;;;5045791;28;20194;-61
2022/07/11 09:55:08;;;;;;;1.10;0.90;;;;;;;;;;5019456;28;20203;-63
2022/07/11 09:58:01;;;;;;;1.17;0.77;;;;;;;;;;5034204;28;20199;-63
2022/07/11 10:00:40;;;;;;;1.50;1.00;;;;;;;;;;5034429;28;20763;-67
2022/07/11 10:03:17;;;;;;;2.03;0.97;;;;;;;;;;5027420;28;20206;-66
2022/07/11 10:06:08;;;;;;;1.93;0.90;;;;;;;;;;5034799;28;20586;-63
2022/07/11 10:08:38;;;;;;;4.57;1.47;;;;;;;;;;5041156;28;20203;-63
2022/07/11 10:11:11;;;;;;;1.97;1.17;;;;;;;;;;5028208;28;20211;-66
2022/07/11 10:13:44;;;;;;;1.37;1.23;;;;;;;;;;5024679;28;20515;-66
2022/07/11 10:16:32;;;;;;;0.97;0.80;;;;;;;;;;5028043;28;20221;-63
2022/07/11 10:19:22;;;;;;;1.87;0.83;;;;;;;;;;5023232;28;20528;-63
2022/07/11 10:22:18;;;;;;;1.10;0.90;;;;;;;;;;5038805;28;20214;-66
2022/07/11 10:25:03;;;;;;;1.43;1.00;;;;;;;;;;5010191;28;20203;-65
2022/07/11 10:27:50;;;;;;;1.47;0.83;;;;;;;;;;5022728;28;20194;-65
2022/07/11 10:30:40;;;;;;;1.20;1.10;;;;;;;;;;5041827;28;20219;-65
2022/07/11 10:33:10;;;;;;;2.47;1.10;;;;;;;;;;5027957;28;20199;-65
2022/07/11 10:35:44;;;;;;;1.13;1.03;;;;;;;;;;5010404;28;20682;-65
2022/07/11 10:38:14;;;;;;;1.57;1.20;;;;;;;;;;5028374;28;20229;-65
2022/07/11 10:40:45;;;;;;;1.30;1.07;;;;;;;;;;5019810;28;20293;-65
2022/07/11 10:43:41;;;;;;;1.40;1.10;;;;;;;;;;5038815;28;20210;-65
2022/07/11 10:46:20;;;;;;;2.07;1.50;;;;;;;;;;5035115;28;20218;-63
2022/07/11 10:48:50;;;;;;;1.57;0.90;;;;;;;;;;5037471;28;20211;-62
2022/07/11 10:51:21;;;;;;;1.50;1.40;;;;;;;;;;5035881;28;20209;-63
2022/07/11 10:53:54;;;;;;;1.50;1.40;;;;;;;;;;5033885;28;20195;-62
2022/07/11 10:56:38;;;;;;;1.60;1.13;;;;;;;;;;5031172;28;20295;-62
2022/07/11 10:59:23;;;;;;;2.20;1.40;;;;;;;;;;5028186;28;20191;-63
2022/07/11 11:02:16;;;;;;;1.87;1.30;;;;;;;;;;5043692;28;20203;-65
2022/07/11 11:05:04;;;;;;;1.83;1.30;;;;;;;;;;5037013;28;20203;-65
2022/07/11 11:07:49;;;;;;;2.73;1.47;;;;;;;;;;5016880;28;20711;-65
2022/07/11 11:10:38;;;;;;;1.23;1.10;;;;;;;;;;5040155;28;20626;-63
2022/07/11 11:13:14;;;;;;;2.27;1.60;;;;;;;;;;5032594;28;20218;-63
2022/07/11 11:15:59;;;;;;;3.30;1.77;;;;;;;;;;5034859;28;20270;-63
2022/07/11 11:18:34;;;;;;;2.20;2.07;;;;;;;;;;5032179;28;20215;-63
2022/07/11 11:21:09;;;;;;;2.87;2.53;;;;;;;;;;5030194;28;20197;-65
2022/07/11 11:24:13;;;;;;;4.07;2.50;;;;;;;;;;5021430;28;20269;-65
2022/07/11 11:26:51;;;;;;;2.07;1.90;;;;;;;;;;5011792;28;20202;-66
2022/07/11 11:29:31;;;;;;;2.17;1.97;;;;;;;;;;5013983;28;20182;-65
2022/07/11 11:32:05;;;;;;;2.37;1.80;;;;;;;;;;5033819;28;20214;-66
2022/07/11 11:34:34;;;;;;;2.13;1.60;;;;;;;;;;5035783;28;20198;-65
2022/07/11 11:37:13;;;;;;;2.97;1.90;;;;;;;;;;5026137;28;21183;-62
2022/07/11 11:39:47;;;;;;;2.40;2.20;;;;;;;;;;5027190;28;20187;-62
2022/07/11 11:42:21;;;;;;;1.70;1.60;;;;;;;;;;5025378;28;20198;-62
2022/07/11 11:45:01;;;;;;;1.87;1.70;;;;;;;;;;5032216;28;20230;-63
2022/07/11 11:47:37;;;;;;;1.63;1.53;;;;;;;;;;5029103;28;20631;-63
2022/07/11 11:50:21;;;;;;;2.27;2.07;;;;;;;;;;5043058;28;20281;-63
2022/07/11 11:52:55;;;;;;;2.20;2.00;;;;;;;;;;5033431;28;20269;-63
2022/07/11 11:55:27;;;;;;;2.50;1.77;;;;;;;;;;5037943;28;20298;-63
2022/07/11 11:57:56;;;;;;;2.00;1.80;;;;;;;;;;5042950;28;20274;-63
2022/07/11 12:00:31;;;;;;;2.30;2.07;;;;;;;;;;5043343;28;20655;-63
2022/07/11 12:03:50;;;;;;;1.50;1.40;;;;;;;;;;5028449;28;21060;-63
2022/07/11 12:06:34;;;;;;;2.20;2.00;;;;;;;;;;5006244;28;20675;-65
2022/07/11 12:09:46;;;;;;;3.10;2.10;;;;;;;;;;5025215;28;20205;-65
2022/07/11 12:15:27;;;;;;;2.20;2.00;;;;;;;;;;5027871;28;20199;-63
2022/07/11 12:18:00;;;;;;;2.57;2.23;;;;;;;;;;5016149;28;20214;-63
2022/07/11 12:20:35;;;;;;;2.83;2.60;;;;;;;;;;5010646;28;20642;-65
2022/07/11 12:23:09;;;;;;;2.70;2.50;;;;;;;;;;5027658;28;20606;-65
2022/07/11 12:25:49;;;;;;;2.60;2.40;;;;;;;;;;5039850;28;20190;-63
2022/07/11 12:28:21;;;;;;;2.40;2.20;;;;;;;;;;5008727;28;20314;-63
2022/07/11 12:30:56;;;;;;;2.60;2.40;;;;;;;;;;5034805;28;20656;-63
2022/07/11 12:33:34;;;;;;;3.53;2.20;;;;;;;;;;5006426;28;20292;-63
2022/07/11 12:36:04;;;;;;;1.90;1.80;;;;;;;;;;5030265;28;20219;-63
2022/07/11 12:38:53;;;;;;;2.40;2.00;;;;;;;;;;5042435;28;20562;-63
2022/07/11 12:41:27;;;;;;;2.10;1.90;;;;;;;;;;5024861;28;20222;-64
2022/07/11 12:46:48;;;;;;;2.07;1.33;;;;;;;;;;5039812;28;20229;-63
2022/07/11 12:49:33;;;;;;;2.00;1.63;;;;;;;;;;5022424;28;20235;-63
2022/07/11 12:52:11;;;;;;;1.60;1.50;;;;;;;;;;5030397;28;20252;-63
2022/07/11 12:54:45;;;;;;;2.40;2.20;;;;;;;;;;5036597;28;20478;-63
2022/07/11 12:57:17;;;;;;;1.70;1.60;;;;;;;;;;5040244;28;20289;-66
2022/07/11 12:59:51;;;;;;;1.87;1.50;;;;;;;;;;5032779;28;20301;-66
2022/07/11 13:02:30;;;;;;;1.57;1.47;;;;;;;;;;5031781;28;20213;-66
2022/07/11 13:05:12;;;;;;;1.70;1.60;;;;;;;;;;5041682;28;20227;-66
2022/07/11 13:10:50;;;;;;;1.57;1.47;;;;;;;;;;5028580;28;20245;-65
2022/07/11 13:13:34;;;;;;;1.80;1.70;;;;;;;;;;5034865;28;21128;-65
2022/07/11 13:16:07;;;;;;;1.30;1.20;;;;;;;;;;5020458;28;20245;-65
2022/07/11 13:18:46;;;;;;;2.47;1.67;;;;;;;;;;5039322;28;20222;-65
2022/07/11 13:21:27;;;;;;;1.60;1.50;;;;;;;;;;5035438;28;20252;-65
2022/07/11 13:24:00;;;;;;;1.83;1.50;;;;;;;;;;5032783;28;20610;-65
2022/07/11 13:26:29;;;;;;;2.13;1.50;;;;;;;;;;5008337;28;20792;-65
2022/07/11 13:28:59;;;;;;;1.63;1.30;;;;;;;;;;5029607;28;20263;-65
2022/07/11 13:31:31;;;;;;;1.47;1.37;;;;;;;;;;5028896;28;20526;-65
2022/07/11 13:34:03;;;;;;;1.63;1.53;;;;;;;;;;5009864;28;20207;-65
2022/07/11 13:36:39;;;;;;;0.97;0.97;;;;;;;;;;5034883;28;20211;-65
2022/07/11 13:39:11;;;;;;;3.13;1.73;;;;;;;;;;5020503;28;20214;-65
2022/07/11 13:41:41;;;;;;;1.90;1.30;;;;;;;;;;5041149;28;20198;-65
2022/07/11 13:44:12;;;;;;;1.30;1.20;;;;;;;;;;5003644;28;20218;-65
2022/07/11 13:46:44;;;;;;;1.50;1.40;;;;;;;;;;5032518;28;20187;-65
2022/07/11 13:49:14;;;;;;;1.77;1.47;;;;;;;;;;5031720;28;20330;-65
2022/07/11 13:51:43;;;;;;;1.77;1.13;;;;;;;;;;5032459;28;20191;-63
2022/07/11 13:54:15;;;;;;;1.00;1.00;;;;;;;;;;5028793;28;20199;-63
2022/07/11 13:56:47;;;;;;;1.10;0.90;;;;;;;;;;5012031;28;20678;-63
2022/07/11 13:59:17;;;;;;;1.17;1.07;;;;;;;;;;5011471;28;20265;-63
2022/07/11 14:01:49;;;;;;;2.83;1.57;;;;;;;;;;5034087;28;20312;-63
2022/07/11 14:04:21;;;;;;;4.07;1.30;;;;;;;;;;5038087;28;20198;-63
2022/07/11 14:06:56;;;;;;;1.50;1.40;;;;;;;;;;5049104;28;20537;-65
2022/07/11 14:09:29;;;;;;;1.30;1.20;;;;;;;;;;5027135;28;20188;-65
2022/07/11 14:11:59;;;;;;;1.37;0.90;;;;;;;;;;5029834;28;20218;-65
2022/07/11 14:14:32;;;;;;;4.43;1.53;;;;;;;;;;5027760;28;20194;-65
2022/07/11 14:17:02;;;;;;;5.70;1.50;;;;;;;;;;5028546;28;20199;-66
2022/07/11 14:19:36;;;;;;;3.03;1.30;;;;;;;;;;4993542;28;20538;-66
2022/07/11 14:22:07;;;;;;;11.13;1.30;;;;;;;;;;5026551;28;20199;-65
2022/07/11 14:24:39;;;;;;;1.20;1.20;;;;;;;;;;5010616;28;20219;-65
2022/07/11 14:27:09;;;;;;;2.60;1.37;;;;;;;;;;5013440;28;20207;-63
2022/07/11 14:29:40;;;;;;;2.30;1.30;;;;;;;;;;5033998;28;20195;-63
2022/07/11 14:32:16;;;;;;;2.53;1.10;;;;;;;;;;5018342;28;20202;-62
2022/07/11 14:34:48;;;;;;;3.37;0.93;;;;;;;;;;5036930;28;20213;-63
2022/07/11 14:37:17;;;;;;;2.10;0.97;;;;;;;;;;5025645;28;20214;-63
2022/07/11 14:39:45;;;;;;;1.40;1.00;;;;;;;;;;5040537;28;20218;-63
2022/07/11 14:42:16;;;;;;;3.43;1.10;;;;;;;;;;5017900;28;20226;-63
2022/07/11 14:45:16;;;;;;;0.87;0.87;;;;;;;;;;5042711;28;20324;-63
2022/07/11 14:47:51;;;;;;;1.07;1.03;;;;;;;;;;5027715;28;20221;-62
2022/07/11 14:50:23;;;;;;;0.97;0.80;;;;;;;;;;5020479;28;20269;-62
2022/07/11 14:52:56;;;;;;;1.63;1.00;;;;;;;;;;5046692;28;20264;-62
2022/07/11 14:55:26;;;;;;;1.10;0.80;;;;;;;;;;5036770;28;20194;-62
2022/07/11 14:57:55;;;;;;;2.50;1.17;;;;;;;;;;5031566;28;20273;-62
2022/07/11 15:00:25;;;;;;;1.80;1.03;;;;;;;;;;5023389;28;20211;-62
2022/07/11 15:05:42;;;;;;;1.10;1.00;;;;;;;;;;5030925;28;20187;-62
2022/07/11 15:13:49;;;;;;;1.63;1.10;;;;;;;;;;5033905;28;20217;-63
2022/07/11 15:16:18;;;;;;;1.27;1.17;;;;;;;;;;5045619;28;20310;-62
2022/07/11 15:18:49;;;;;;;1.00;1.00;;;;;;;;;;5013018;28;20298;-62
2022/07/11 15:21:20;;;;;;;1.00;1.00;;;;;;;;;;5043435;28;20191;-62
2022/07/11 15:23:49;;;;;;;1.30;0.90;;;;;;;;;;5029015;28;20257;-63
2022/07/11 15:26:24;;;;;;;0.90;0.90;;;;;;;;;;5021754;28;20195;-65
2022/07/11 15:28:54;;;;;;;1.60;1.20;;;;;;;;;;5038885;28;20203;-65
2022/07/11 15:31:26;;;;;;;1.30;1.20;;;;;;;;;;5005298;28;20295;-62
2022/07/11 15:33:59;;;;;;;1.70;1.50;;;;;;;;;;5027977;28;20637;-62
2022/07/11 15:36:31;;;;;;;1.60;1.10;;;;;;;;;;5010936;28;20206;-62
2022/07/11 15:39:02;;;;;;;1.27;1.17;;;;;;;;;;5034470;28;20219;-62
2022/07/11 15:41:33;;;;;;;2.93;1.10;;;;;;;;;;5020375;28;20190;-65
2022/07/11 15:44:08;;;;;;;0.83;0.83;;;;;;;;;;5029048;28;20277;-65
2022/07/11 15:46:37;;;;;;;0.90;0.90;;;;;;;;;;5030410;28;20603;-63